createdAt,value
2018-06-04T00:00:24.056Z,4.80
2018-06-04T00:02:52.358Z,5.20
2018-06-04T00:05:20.681Z,4.73
2018-06-04T00:07:48.977Z,4.17
2018-06-04T00:10:17.340Z,4.57
2018-06-04T00:12:45.629Z,4.53
2018-06-04T00:15:13.957Z,4.90
2018-06-04T00:17:42.253Z,4.90
2018-06-04T00:20:10.576Z,5.27
2018-06-04T00:22:38.899Z,5.00
2018-06-04T00:25:07.372Z,5.07
2018-06-04T00:27:35.693Z,4.43
2018-06-04T00:30:04.021Z,4.87
2018-06-04T00:32:32.308Z,4.70
2018-06-04T00:35:00.604Z,4.73
2018-06-04T00:37:28.920Z,4.70
2018-06-04T00:39:57.245Z,4.47
2018-06-04T00:42:25.536Z,5.00
2018-06-04T00:44:53.847Z,4.80
2018-06-04T00:47:22.120Z,4.93
2018-06-04T00:49:50.432Z,5.17
2018-06-04T00:52:18.760Z,4.83
2018-06-04T00:54:47.064Z,4.80
2018-06-04T00:57:15.372Z,4.90
2018-06-04T00:59:43.713Z,5.43
2018-06-04T01:02:12.009Z,5.37
2018-06-04T01:04:40.344Z,4.83
2018-06-04T01:07:08.675Z,5.30
2018-06-04T01:09:37.056Z,5.17
2018-06-04T01:12:05.402Z,5.70
2018-06-04T01:14:33.726Z,5.40
2018-06-04T01:17:02.016Z,5.07
2018-06-04T01:19:30.341Z,5.33
2018-06-04T01:21:58.641Z,5.50
2018-06-04T01:24:26.960Z,5.50
2018-06-04T01:26:55.261Z,5.20
2018-06-04T01:29:23.572Z,5.37
2018-06-04T01:31:51.852Z,5.67
2018-06-04T01:34:20.165Z,5.50
2018-06-04T01:36:48.471Z,5.60
2018-06-04T01:39:16.801Z,5.47
2018-06-04T01:41:45.112Z,5.83
2018-06-04T01:44:13.431Z,5.87
2018-06-04T01:46:41.741Z,5.90
2018-06-04T01:49:10.088Z,5.87
2018-06-04T01:51:38.377Z,6.57
2018-06-04T01:54:06.709Z,6.33
2018-06-04T01:56:35.017Z,6.00
2018-06-04T01:59:03.309Z,6.13
2018-06-04T02:01:31.644Z,6.23
2018-06-04T02:03:59.953Z,6.00
2018-06-04T02:06:28.268Z,5.97
2018-06-04T02:08:56.600Z,6.37
2018-06-04T02:11:24.974Z,6.73
2018-06-04T02:13:53.294Z,7.13
2018-06-04T02:16:21.612Z,6.90
2018-06-04T02:18:49.917Z,7.03
2018-06-04T02:21:18.257Z,7.70
2018-06-04T02:23:46.572Z,6.90
2018-06-04T02:26:14.878Z,6.90
2018-06-04T02:28:43.173Z,6.73
2018-06-04T02:31:11.494Z,7.23
2018-06-04T02:33:39.793Z,6.47
2018-06-04T02:36:08.107Z,6.17
2018-06-04T02:38:36.397Z,6.33
2018-06-04T02:41:04.735Z,6.90
2018-06-04T02:43:33.170Z,7.30
2018-06-04T02:46:01.488Z,7.77
2018-06-04T02:48:29.799Z,7.07
2018-06-04T02:50:58.123Z,7.47
2018-06-04T02:53:26.533Z,8.83
2018-06-04T02:55:54.850Z,7.80
2018-06-04T02:58:23.178Z,7.20
2018-06-04T03:00:51.497Z,8.57
2018-06-04T03:03:19.830Z,9.47
2018-06-04T03:05:48.140Z,9.03
2018-06-04T03:08:16.453Z,8.13
2018-06-04T03:10:44.897Z,9.17
2018-06-04T03:13:13.153Z,8.10
2018-06-04T03:15:41.461Z,8.40
2018-06-04T03:18:09.765Z,8.03
2018-06-04T03:20:38.109Z,7.87
2018-06-04T03:23:06.411Z,8.03
2018-06-04T03:25:34.769Z,8.57
2018-06-04T03:28:03.054Z,8.63
2018-06-04T03:30:31.365Z,7.90
2018-06-04T03:32:59.660Z,9.80
2018-06-04T03:35:28.040Z,9.10
2018-06-04T03:37:56.337Z,8.70
2018-06-04T03:40:24.653Z,9.90
2018-06-04T03:42:52.956Z,9.73
2018-06-04T03:45:21.273Z,8.43
2018-06-04T03:47:49.591Z,9.10
2018-06-04T03:50:17.913Z,9.13
2018-06-04T03:52:46.228Z,10.37
2018-06-04T03:55:14.522Z,10.47
2018-06-04T03:57:42.841Z,10.23
2018-06-04T04:00:11.146Z,9.47
2018-06-04T04:02:39.581Z,10.20
2018-06-04T04:05:07.949Z,9.63
2018-06-04T04:07:36.265Z,8.50
2018-06-04T04:10:04.640Z,7.83
2018-06-04T04:12:33.012Z,7.90
2018-06-04T04:15:01.319Z,8.67
2018-06-04T04:17:29.656Z,7.77
2018-06-04T04:19:57.982Z,8.07
2018-06-04T04:22:26.318Z,8.83
2018-06-04T04:24:54.652Z,9.10
2018-06-04T04:27:22.961Z,9.77
2018-06-04T04:29:51.252Z,9.70
2018-06-04T04:32:19.594Z,9.03
2018-06-04T04:34:47.886Z,9.40
2018-06-04T04:37:16.193Z,9.97
2018-06-04T04:39:44.473Z,9.30
2018-06-04T04:42:12.787Z,9.13
2018-06-04T04:44:41.073Z,9.93
2018-06-04T04:47:09.381Z,9.73
2018-06-04T04:49:37.717Z,10.17
2018-06-04T04:52:06.044Z,9.37
2018-06-04T04:54:34.336Z,9.30
2018-06-04T04:57:02.673Z,10.27
2018-06-04T04:59:30.961Z,10.80
2018-06-04T05:01:59.292Z,11.10
2018-06-04T05:04:27.572Z,10.87
2018-06-04T05:06:55.881Z,11.60
2018-06-04T05:09:24.185Z,11.23
2018-06-04T05:11:52.545Z,11.30
2018-06-04T05:14:20.828Z,11.07
2018-06-04T05:16:49.136Z,10.63
2018-06-04T05:19:17.439Z,10.23
2018-06-04T05:21:45.755Z,10.67
2018-06-04T05:24:14.079Z,9.80
2018-06-04T05:26:42.413Z,10.90
2018-06-04T05:29:10.700Z,10.27
2018-06-04T05:31:39.017Z,10.37
2018-06-04T05:34:07.305Z,10.57
2018-06-04T05:36:35.589Z,9.70
2018-06-04T05:39:05.813Z,10.43
2018-06-04T05:41:34.105Z,9.47
2018-06-04T05:44:02.437Z,10.27
2018-06-04T05:46:30.737Z,10.10
2018-06-04T05:48:59.053Z,10.00
2018-06-04T05:51:27.336Z,9.63
2018-06-04T05:53:55.675Z,9.77
2018-06-04T05:56:23.976Z,10.63
2018-06-04T05:58:52.302Z,9.70
2018-06-04T06:01:20.601Z,9.43
2018-06-04T06:03:48.904Z,9.77
2018-06-04T06:06:17.193Z,9.83
2018-06-04T06:08:45.517Z,8.30
2018-06-04T06:11:13.841Z,6.17
2018-06-04T06:13:42.192Z,7.87
2018-06-04T06:16:10.468Z,7.73
2018-06-04T06:18:38.819Z,8.47
2018-06-04T06:21:07.133Z,9.70
2018-06-04T06:23:35.509Z,10.67
2018-06-04T06:26:03.792Z,9.40
2018-06-04T06:28:32.104Z,8.83
2018-06-04T06:31:00.404Z,9.77
2018-06-04T06:33:28.724Z,9.47
2018-06-04T06:35:57.030Z,10.00
2018-06-04T06:38:25.344Z,8.47
2018-06-04T06:40:53.631Z,9.33
2018-06-04T06:43:21.933Z,9.73
2018-06-04T06:45:50.229Z,9.60
2018-06-04T06:48:18.532Z,10.00
2018-06-04T06:50:46.833Z,9.43
2018-06-04T06:53:15.137Z,9.37
2018-06-04T06:55:43.427Z,9.07
2018-06-04T06:58:11.764Z,9.07
2018-06-04T07:00:40.077Z,8.83
2018-06-04T07:03:08.394Z,9.50
2018-06-04T07:05:36.681Z,9.20
2018-06-04T07:08:05.033Z,9.63
2018-06-04T07:10:33.337Z,9.50
2018-06-04T07:13:01.713Z,8.80
2018-06-04T07:15:30.000Z,9.00
2018-06-04T07:17:58.329Z,8.53
2018-06-04T07:20:26.626Z,9.70
2018-06-04T07:22:54.928Z,8.60
2018-06-04T07:25:23.228Z,9.40
2018-06-04T07:27:51.528Z,8.80
2018-06-04T07:30:19.840Z,8.17
2018-06-04T07:32:48.153Z,9.53
2018-06-04T07:35:16.440Z,8.37
2018-06-04T07:37:44.740Z,8.97
2018-06-04T07:40:13.055Z,9.10
2018-06-04T07:42:47.172Z,8.97
2018-06-04T07:45:15.487Z,8.70
2018-06-04T07:47:43.776Z,8.27
2018-06-04T07:50:15.684Z,8.20
2018-06-04T07:52:44.259Z,7.80
2018-06-04T07:55:12.574Z,8.13
2018-06-04T07:57:41.010Z,7.73
2018-06-04T08:00:09.344Z,9.43
2018-06-04T08:02:37.637Z,8.43
2018-06-04T08:05:05.987Z,8.43
2018-06-04T08:07:34.309Z,7.60
2018-06-04T08:10:02.686Z,8.43
2018-06-04T08:12:30.932Z,7.70
2018-06-04T08:14:59.265Z,8.20
2018-06-04T08:17:27.606Z,8.80
2018-06-04T08:19:55.909Z,8.43
2018-06-04T08:22:24.188Z,8.30
2018-06-04T08:24:52.526Z,7.53
2018-06-04T08:27:20.828Z,8.53
2018-06-04T08:29:49.229Z,8.53
2018-06-04T08:32:17.670Z,8.67
2018-06-04T08:34:45.989Z,8.30
2018-06-04T08:37:14.277Z,7.83
2018-06-04T08:39:42.593Z,7.60
2018-06-04T08:42:10.892Z,8.07
2018-06-04T08:44:39.235Z,7.77
2018-06-04T08:47:07.836Z,7.43
2018-06-04T08:49:36.158Z,8.00
2018-06-04T08:52:04.477Z,8.17
2018-06-04T08:54:32.797Z,8.40
2018-06-04T08:57:01.097Z,7.50
2018-06-04T08:59:29.449Z,8.07
2018-06-04T09:01:57.761Z,7.93
2018-06-04T09:04:26.074Z,7.83
2018-06-04T09:06:54.368Z,8.17
2018-06-04T09:09:22.688Z,8.10
2018-06-04T09:11:50.981Z,7.63
2018-06-04T09:14:19.300Z,7.80
2018-06-04T09:16:47.649Z,7.53
2018-06-04T09:19:15.966Z,8.10
2018-06-04T09:21:44.304Z,8.23
2018-06-04T09:24:12.581Z,8.90
2018-06-04T09:26:40.927Z,8.77
2018-06-04T09:29:09.249Z,9.00
2018-06-04T09:31:37.548Z,8.73
2018-06-04T09:34:05.886Z,8.83
2018-06-04T09:36:34.224Z,8.10
2018-06-04T09:39:02.526Z,8.10
2018-06-04T09:41:30.848Z,8.30
2018-06-04T09:43:59.152Z,8.10
2018-06-04T09:46:27.484Z,7.93
2018-06-04T09:48:55.808Z,8.27
2018-06-04T09:51:24.117Z,8.07
2018-06-04T09:53:52.443Z,7.57
2018-06-04T09:56:20.740Z,8.03
2018-06-04T09:58:49.041Z,7.87
2018-06-04T10:01:17.390Z,7.63
2018-06-04T10:03:45.702Z,6.90
2018-06-04T10:06:14.041Z,5.93
2018-06-04T10:08:42.316Z,5.97
2018-06-04T10:11:10.626Z,5.20
2018-06-04T10:13:38.917Z,4.97
2018-06-04T10:16:07.669Z,5.10
2018-06-04T10:18:35.983Z,5.57
2018-06-04T10:21:04.305Z,5.33
2018-06-04T10:23:32.614Z,5.67
2018-06-04T10:26:00.961Z,5.67
2018-06-04T10:28:29.269Z,5.80
2018-06-04T10:30:57.591Z,5.23
2018-06-04T10:33:25.893Z,4.87
2018-06-04T10:35:54.217Z,5.80
2018-06-04T10:38:22.496Z,4.93
2018-06-04T10:40:50.813Z,4.93
2018-06-04T10:43:19.133Z,6.30
2018-06-04T10:45:47.469Z,5.00
2018-06-04T10:48:15.773Z,5.28
2018-06-04T10:50:44.072Z,5.15
2018-06-04T10:53:12.356Z,5.65
2018-06-04T10:55:40.659Z,5.58
2018-06-04T10:58:08.949Z,5.55
2018-06-04T11:00:37.277Z,6.22
2018-06-04T11:03:05.581Z,6.03
2018-06-04T11:05:33.909Z,7.35
2018-06-04T11:08:02.200Z,6.90
2018-06-04T11:10:30.533Z,7.17
2018-06-04T11:12:58.822Z,6.42
2018-06-04T11:15:27.131Z,7.15
2018-06-04T11:17:55.204Z,6.30
2018-06-04T11:20:23.518Z,6.30
2018-06-04T11:22:51.841Z,5.85
2018-06-04T11:25:20.137Z,6.15
2018-06-04T11:27:48.469Z,5.90
2018-06-04T11:30:16.772Z,6.72
2018-06-04T11:32:45.112Z,5.72
2018-06-04T11:35:13.443Z,5.62
2018-06-04T11:37:41.764Z,5.65
2018-06-04T11:40:10.052Z,6.20
2018-06-04T11:42:38.369Z,5.65
2018-06-04T11:45:06.692Z,5.62
2018-06-04T11:47:35.037Z,6.00
2018-06-04T11:50:03.063Z,5.70
2018-06-04T11:52:31.386Z,5.62
2018-06-04T11:54:59.683Z,5.50
2018-06-04T11:57:28.004Z,6.00
2018-06-04T11:59:56.302Z,4.70
2018-06-04T12:02:24.620Z,5.30
2018-06-04T12:04:52.917Z,5.97
2018-06-04T12:07:21.236Z,5.10
2018-06-04T12:09:49.528Z,5.47
2018-06-04T12:12:17.863Z,5.40
2018-06-04T12:14:46.167Z,6.10
2018-06-04T12:17:14.507Z,5.63
2018-06-04T12:19:42.808Z,5.40
2018-06-04T12:22:11.125Z,5.57
2018-06-04T12:24:39.424Z,5.67
2018-06-04T12:27:07.728Z,5.45
2018-06-04T12:29:36.027Z,5.60
2018-06-04T12:32:04.368Z,5.20
2018-06-04T12:34:32.678Z,5.23
2018-06-04T12:37:00.988Z,5.33
2018-06-04T12:39:29.292Z,5.23
2018-06-04T12:41:57.604Z,5.27
2018-06-04T12:44:25.896Z,5.37
2018-06-04T12:46:54.248Z,5.00
2018-06-04T12:49:22.645Z,4.83
2018-06-04T12:51:50.936Z,5.43
2018-06-04T12:54:19.247Z,5.10
2018-06-04T12:56:47.619Z,5.07
2018-06-04T12:59:15.936Z,5.17
2018-06-04T13:01:44.236Z,5.30
2018-06-04T13:04:12.553Z,6.07
2018-06-04T13:06:40.844Z,5.33
2018-06-04T13:09:09.213Z,5.47
2018-06-04T13:11:37.553Z,4.90
2018-06-04T13:14:05.936Z,5.10
2018-06-04T13:16:34.275Z,5.20
2018-06-04T13:19:02.623Z,4.90
2018-06-04T13:21:30.952Z,4.87
2018-06-04T13:23:59.256Z,5.17
2018-06-04T13:26:27.539Z,5.37
2018-06-04T13:28:55.848Z,5.00
2018-06-04T13:31:24.220Z,4.60
2018-06-04T13:33:52.568Z,4.10
2018-06-04T13:36:20.873Z,3.80
2018-06-04T13:38:49.181Z,3.20
2018-06-04T13:41:17.564Z,4.20
2018-06-04T13:43:45.892Z,3.90
2018-06-04T13:46:14.213Z,3.70
2018-06-04T13:48:42.545Z,3.63
2018-06-04T13:51:10.847Z,3.33
2018-06-04T13:53:39.164Z,3.43
2018-06-04T13:56:07.539Z,3.27
2018-06-04T13:58:35.807Z,2.87
2018-06-04T14:01:04.134Z,2.90
2018-06-04T14:03:32.450Z,3.13
2018-06-04T14:06:00.739Z,4.50
2018-06-04T14:08:29.054Z,3.60
2018-06-04T14:10:57.383Z,3.77
2018-06-04T14:13:25.717Z,4.20
2018-06-04T14:15:54.020Z,3.70
2018-06-04T14:18:22.349Z,4.37
2018-06-04T14:20:50.642Z,3.63
2018-06-04T14:23:18.975Z,4.13
2018-06-04T14:25:47.269Z,4.40
2018-06-04T14:28:15.596Z,4.23
2018-06-04T14:30:43.884Z,3.80
2018-06-04T14:33:12.174Z,3.90
2018-06-04T14:35:40.588Z,3.80
2018-06-04T14:38:08.916Z,3.60
2018-06-04T14:40:37.244Z,3.70
2018-06-04T14:43:05.647Z,3.67
2018-06-04T14:45:33.989Z,3.70
2018-06-04T14:48:02.301Z,3.60
2018-06-04T14:50:30.612Z,3.50
2018-06-04T14:52:58.899Z,2.90
2018-06-04T14:55:26.929Z,3.10
2018-06-04T14:57:55.223Z,3.37
2018-06-04T15:00:23.525Z,3.50
2018-06-04T15:02:52.841Z,3.77
2018-06-04T15:05:21.171Z,3.10
2018-06-04T15:07:49.461Z,3.50
2018-06-04T15:10:17.765Z,3.73
2018-06-04T15:12:46.073Z,4.17
2018-06-04T15:15:14.399Z,3.80
2018-06-04T15:17:42.692Z,3.60
2018-06-04T15:20:10.995Z,3.77
2018-06-04T15:22:39.279Z,3.57
2018-06-04T15:25:07.596Z,3.97
2018-06-04T15:27:36.022Z,3.80
2018-06-04T15:30:04.666Z,3.50
2018-06-04T15:32:32.984Z,4.40
2018-06-04T15:35:01.294Z,3.90
2018-06-04T15:37:29.578Z,3.60
2018-06-04T15:39:57.887Z,4.13
2018-06-04T15:42:26.193Z,4.00
2018-06-04T15:44:54.540Z,4.10
2018-06-04T15:47:22.884Z,4.07
2018-06-04T15:49:51.225Z,4.13
2018-06-04T15:52:19.672Z,4.23
2018-06-04T15:54:48.005Z,4.70
2018-06-04T15:57:16.301Z,4.93
2018-06-04T15:59:44.640Z,4.67
2018-06-04T16:02:17.020Z,4.67
2018-06-04T16:04:45.347Z,5.53
2018-06-04T16:07:13.660Z,4.93
2018-06-04T16:09:41.974Z,5.10
2018-06-04T16:12:10.309Z,5.10
2018-06-04T16:14:38.668Z,4.60
2018-06-04T16:17:07.032Z,4.97
2018-06-04T16:19:35.339Z,4.53
2018-06-04T16:22:03.766Z,5.10
2018-06-04T16:24:32.045Z,5.13
2018-06-04T16:27:00.338Z,4.60
2018-06-04T16:29:28.652Z,5.40
2018-06-04T16:31:57.021Z,5.07
2018-06-04T16:34:25.331Z,5.10
2018-06-04T16:36:53.620Z,5.13
2018-06-04T16:39:21.914Z,5.60
2018-06-04T16:41:50.236Z,5.50
2018-06-04T16:44:18.560Z,6.13
2018-06-04T16:46:46.957Z,6.17
2018-06-04T16:49:15.273Z,6.43
2018-06-04T16:51:43.621Z,6.20
2018-06-04T16:54:12.073Z,6.43
2018-06-04T16:56:40.417Z,6.43
2018-06-04T16:59:08.769Z,6.20
2018-06-04T17:01:37.124Z,6.10
2018-06-04T17:04:05.481Z,5.87
2018-06-04T17:06:33.840Z,6.20
2018-06-04T17:09:02.141Z,5.70
2018-06-04T17:11:30.482Z,5.90
2018-06-04T17:13:58.946Z,6.07
2018-06-04T17:16:27.265Z,6.43
2018-06-04T17:18:55.552Z,6.27
2018-06-04T17:21:23.893Z,6.20
2018-06-04T17:23:52.212Z,7.00
2018-06-04T17:26:20.529Z,6.50
2018-06-04T17:28:48.849Z,7.13
2018-06-04T17:31:17.173Z,6.47
2018-06-04T17:33:45.496Z,5.93
2018-06-04T17:36:13.812Z,6.23
2018-06-04T17:38:42.121Z,6.23
2018-06-04T17:41:10.441Z,6.10
2018-06-04T17:43:38.740Z,6.10
2018-06-04T17:46:07.049Z,6.50
2018-06-04T17:48:35.385Z,5.90
2018-06-04T17:51:03.689Z,5.87
2018-06-04T17:53:31.973Z,5.40
2018-06-04T17:56:00.300Z,5.60
2018-06-04T17:58:28.605Z,5.90
2018-06-04T18:00:56.919Z,5.57
2018-06-04T18:03:25.220Z,5.10
2018-06-04T18:05:53.534Z,5.80
2018-06-04T18:08:21.824Z,6.23
2018-06-04T18:10:50.142Z,5.67
2018-06-04T18:13:18.468Z,5.97
2018-06-04T18:15:46.805Z,6.17
2018-06-04T18:18:15.108Z,6.07
2018-06-04T18:20:43.383Z,5.27
2018-06-04T18:23:11.704Z,5.83
2018-06-04T18:25:40.003Z,5.40
2018-06-04T18:28:08.320Z,5.87
2018-06-04T18:30:36.721Z,5.80
2018-06-04T18:33:05.056Z,6.17
2018-06-04T18:35:33.339Z,5.97
2018-06-04T18:38:01.645Z,5.60
2018-06-04T18:40:29.948Z,5.67
2018-06-04T18:42:58.249Z,5.80
2018-06-04T18:45:26.536Z,6.27
2018-06-04T18:47:54.855Z,6.00
2018-06-04T18:50:23.131Z,6.13
2018-06-04T18:52:51.449Z,5.90
2018-06-04T18:55:19.749Z,6.20
2018-06-04T18:57:53.089Z,6.50
2018-06-04T19:00:21.379Z,7.33
2018-06-04T19:02:49.692Z,6.60
2018-06-04T19:05:18.009Z,7.37
2018-06-04T19:07:46.338Z,7.07
2018-06-04T19:10:14.625Z,7.23
2018-06-04T19:12:42.953Z,7.83
2018-06-04T19:15:11.277Z,7.43
2018-06-04T19:17:39.628Z,7.87
2018-06-04T19:20:07.958Z,7.57
2018-06-04T19:22:36.280Z,7.40
2018-06-04T19:25:04.693Z,7.10
2018-06-04T19:27:33.007Z,7.43
2018-06-04T19:30:01.308Z,7.37
2018-06-04T19:32:29.617Z,7.57
2018-06-04T19:34:57.921Z,6.47
2018-06-04T19:37:26.265Z,7.17
2018-06-04T19:39:54.563Z,8.07
2018-06-04T19:42:22.856Z,7.43
2018-06-04T19:44:51.208Z,7.70
2018-06-04T19:47:19.502Z,6.40
2018-06-04T19:49:47.871Z,6.63
2018-06-04T19:52:16.189Z,6.37
2018-06-04T19:54:44.507Z,7.43
2018-06-04T19:57:12.547Z,7.23
2018-06-04T19:59:40.884Z,7.13
2018-06-04T20:02:09.166Z,6.70
2018-06-04T20:04:37.473Z,7.17
2018-06-04T20:07:05.852Z,7.27
2018-06-04T20:09:34.155Z,7.33
2018-06-04T20:12:02.448Z,6.33
2018-06-04T20:14:30.771Z,7.33
2018-06-04T20:16:59.065Z,8.17
2018-06-04T20:19:27.398Z,6.53
2018-06-04T20:21:55.685Z,6.77
2018-06-04T20:24:23.988Z,7.67
2018-06-04T20:26:52.333Z,6.60
2018-06-04T20:29:20.638Z,7.63
2018-06-04T20:31:48.947Z,6.60
2018-06-04T20:34:17.268Z,6.87
2018-06-04T20:36:45.583Z,6.90
2018-06-04T20:39:13.964Z,6.97
2018-06-04T20:41:42.287Z,6.60
2018-06-04T20:44:10.593Z,6.73
2018-06-04T20:46:38.903Z,6.70
2018-06-04T20:49:07.213Z,7.13
2018-06-04T20:51:35.526Z,7.07
2018-06-04T20:54:03.849Z,7.00
2018-06-04T20:56:32.138Z,6.70
2018-06-04T20:59:00.464Z,6.80
2018-06-04T21:01:28.780Z,5.80
2018-06-04T21:03:57.128Z,7.10
2018-06-04T21:06:25.441Z,7.20
2018-06-04T21:08:53.756Z,7.30
2018-06-04T21:11:22.068Z,8.53
2018-06-04T21:13:50.413Z,8.13
2018-06-04T21:16:18.715Z,8.80
2018-06-04T21:18:47.062Z,8.20
2018-06-04T21:21:15.398Z,8.17
2018-06-04T21:23:43.715Z,8.40
2018-06-04T21:26:12.024Z,8.07
2018-06-04T21:28:40.317Z,7.70
2018-06-04T21:31:08.653Z,8.60
2018-06-04T21:33:36.991Z,7.73
2018-06-04T21:36:05.404Z,9.07
2018-06-04T21:38:33.700Z,8.87
2018-06-04T21:41:02.008Z,8.97
2018-06-04T21:43:30.388Z,9.10
2018-06-04T21:45:58.708Z,8.90
2018-06-04T21:48:27.032Z,8.33
2018-06-04T21:50:55.341Z,8.83
2018-06-04T21:53:23.641Z,8.93
2018-06-04T21:55:52.281Z,8.80
2018-06-04T21:58:25.949Z,8.43
2018-06-04T22:00:54.301Z,8.83
2018-06-04T22:03:22.608Z,8.30
2018-06-04T22:05:50.924Z,8.70
2018-06-04T22:08:19.216Z,9.53
2018-06-04T22:10:47.524Z,8.90
2018-06-04T22:13:15.871Z,8.57
2018-06-04T22:15:44.191Z,9.20
2018-06-04T22:18:12.486Z,9.67
2018-06-04T22:20:41.644Z,9.27
2018-06-04T22:23:09.947Z,8.70
2018-06-04T22:25:38.275Z,9.20
2018-06-04T22:28:06.564Z,9.10
2018-06-04T22:30:34.945Z,9.10
2018-06-04T22:33:03.280Z,9.57
2018-06-04T22:35:31.598Z,9.60
2018-06-04T22:38:00.047Z,9.53
2018-06-04T22:40:28.356Z,9.93
2018-06-04T22:42:56.661Z,9.90
2018-06-04T22:45:24.967Z,10.27
2018-06-04T22:47:53.290Z,9.23
2018-06-04T22:50:21.608Z,9.93
2018-06-04T22:52:49.904Z,9.97
2018-06-04T22:55:18.184Z,9.83
2018-06-04T22:57:46.501Z,9.77
2018-06-04T23:00:28.000Z,9.47
2018-06-04T23:02:56.320Z,10.40
2018-06-04T23:05:24.616Z,10.13
2018-06-04T23:07:52.949Z,10.73
2018-06-04T23:10:21.249Z,9.70
2018-06-04T23:12:49.581Z,10.43
2018-06-04T23:15:17.898Z,10.50
2018-06-04T23:17:46.209Z,9.93
2018-06-04T23:20:14.582Z,9.67
2018-06-04T23:22:42.610Z,9.97
2018-06-04T23:25:10.908Z,9.97
2018-06-04T23:27:39.264Z,9.50
2018-06-04T23:30:07.560Z,9.03
2018-06-04T23:32:35.907Z,9.97
2018-06-04T23:35:04.229Z,9.70
2018-06-04T23:37:32.544Z,10.10
2018-06-04T23:40:00.847Z,10.10
2018-06-04T23:42:29.162Z,9.97
2018-06-04T23:44:57.464Z,9.40
2018-06-04T23:47:25.784Z,9.50
2018-06-04T23:49:54.101Z,9.97
2018-06-04T23:52:22.448Z,9.43
2018-06-04T23:54:50.745Z,10.17
2018-06-04T23:57:19.059Z,10.10
2018-06-04T23:59:47.344Z,9.93
